Time;durP1;ratioP1;P1;durP2;ratioP2;P2;SDS_P1;SDS_P2;PMS_P1;PMS_P2;Temp;Humidity;BMP_temperature;BMP_pressure;BME280_temperature;BME280_humidity;BME280_pressure;Samples;Min_cycle;Max_cycle;Signal;HPM_P1;HPM_P2
2022/06/22 00:00:18;;;;;;;4.68;3.20;;;;;;;;;;5031606;28;20046;-69
2022/06/22 00:02:46;;;;;;;5.50;3.10;;;;;;;;;;5030134;28;20053;-69
2022/06/22 00:05:18;;;;;;;3.42;2.45;;;;;;;;;;5030299;28;20056;-70
2022/06/22 00:07:50;;;;;;;4.85;3.22;;;;;;;;;;5030280;28;20049;-69
2022/06/22 00:10:17;;;;;;;3.15;2.55;;;;;;;;;;5014261;28;20053;-69
2022/06/22 00:12:50;;;;;;;5.03;3.10;;;;;;;;;;5031341;28;20484;-69
2022/06/22 00:15:38;;;;;;;3.53;2.60;;;;;;;;;;5030447;28;20049;-70
2022/06/22 00:18:20;;;;;;;5.15;3.00;;;;;;;;;;5030481;28;20107;-69
2022/06/22 00:20:52;;;;;;;2.83;2.17;;;;;;;;;;5031275;28;20049;-69
2022/06/22 00:23:29;;;;;;;3.67;2.80;;;;;;;;;;5032968;28;20061;-69
2022/06/22 00:26:08;;;;;;;6.63;2.80;;;;;;;;;;5018423;28;20500;-69
2022/06/22 00:28:50;;;;;;;4.03;2.95;;;;;;;;;;5035417;28;20049;-70
2022/06/22 00:31:51;;;;;;;3.95;2.53;;;;;;;;;;5033882;28;20103;-70
2022/06/22 00:34:21;;;;;;;3.22;2.50;;;;;;;;;;5023784;28;20153;-69
2022/06/22 00:37:01;;;;;;;4.35;3.25;;;;;;;;;;5035287;28;20111;-69
2022/06/22 00:39:27;;;;;;;4.07;2.67;;;;;;;;;;5035142;28;20151;-69
2022/06/22 00:42:00;;;;;;;5.63;3.10;;;;;;;;;;5023403;28;20398;-69
2022/06/22 00:44:31;;;;;;;3.33;2.95;;;;;;;;;;5015060;28;20054;-69
2022/06/22 00:46:58;;;;;;;4.43;2.60;;;;;;;;;;4997806;28;20054;-69
2022/06/22 00:49:24;;;;;;;5.93;3.25;;;;;;;;;;5014992;28;20057;-69
2022/06/22 00:51:51;;;;;;;4.53;3.05;;;;;;;;;;4997492;28;20444;-70
2022/06/22 00:54:23;;;;;;;4.38;3.03;;;;;;;;;;5025323;28;20080;-69
2022/06/22 00:57:12;;;;;;;3.90;2.70;;;;;;;;;;5033574;28;20512;-69
2022/06/22 01:00:05;;;;;;;4.60;3.33;;;;;;;;;;5033375;28;20054;-69
2022/06/22 01:02:56;;;;;;;6.25;3.30;;;;;;;;;;5033483;28;20050;-69
2022/06/22 01:05:37;;;;;;;3.38;2.53;;;;;;;;;;5028649;28;20046;-69
2022/06/22 01:08:04;;;;;;;5.00;3.20;;;;;;;;;;4998150;28;20050;-69
2022/06/22 01:10:32;;;;;;;4.72;3.20;;;;;;;;;;5014542;28;20112;-69
2022/06/22 01:13:08;;;;;;;4.30;2.90;;;;;;;;;;5013373;28;20052;-69
2022/06/22 01:15:40;;;;;;;5.63;2.80;;;;;;;;;;4997986;28;20053;-69
2022/06/22 01:18:12;;;;;;;3.60;2.70;;;;;;;;;;5015365;28;20085;-69
2022/06/22 01:20:53;;;;;;;5.00;2.70;;;;;;;;;;5003464;28;20054;-69
2022/06/22 01:23:55;;;;;;;7.22;2.53;;;;;;;;;;5033078;28;20478;-69
2022/06/22 01:26:56;;;;;;;3.85;2.63;;;;;;;;;;5020869;28;20084;-69
2022/06/22 01:29:24;;;;;;;3.85;2.55;;;;;;;;;;5014202;28;20096;-70
2022/06/22 01:32:14;;;;;;;4.03;2.95;;;;;;;;;;5012707;28;20053;-69
2022/06/22 01:34:43;;;;;;;4.55;3.40;;;;;;;;;;5008146;28;20058;-69
2022/06/22 01:37:16;;;;;;;3.25;2.95;;;;;;;;;;5012902;28;20050;-69
2022/06/22 01:39:42;;;;;;;8.07;2.78;;;;;;;;;;5032699;28;20049;-69
2022/06/22 01:42:57;;;;;;;3.42;2.90;;;;;;;;;;5033525;28;20049;-68
2022/06/22 01:45:44;;;;;;;5.25;3.25;;;;;;;;;;5030760;28;20483;-69
2022/06/22 01:48:25;;;;;;;7.35;3.08;;;;;;;;;;5044343;28;20065;-69
2022/06/22 01:51:37;;;;;;;3.35;2.97;;;;;;;;;;5017434;28;20099;-69
2022/06/22 01:54:10;;;;;;;4.90;3.05;;;;;;;;;;5011263;28;20456;-70
2022/06/22 01:56:41;;;;;;;3.78;3.28;;;;;;;;;;4999650;28;20069;-69
2022/06/22 01:59:15;;;;;;;7.25;4.28;;;;;;;;;;5021351;28;20052;-69
2022/06/22 02:02:00;;;;;;;4.15;3.15;;;;;;;;;;5031830;28;20496;-68
2022/06/22 02:04:38;;;;;;;5.00;3.38;;;;;;;;;;5031733;28;20061;-69
2022/06/22 02:10:23;;;;;;;8.60;3.60;;;;;;;;;;5012616;28;20468;-69
2022/06/22 02:12:53;;;;;;;4.80;3.30;;;;;;;;;;5013584;28;20136;-69
2022/06/22 02:15:40;;;;;;;8.02;3.40;;;;;;;;;;5028605;28;20058;-70
2022/06/22 02:18:10;;;;;;;5.03;3.30;;;;;;;;;;5026718;28;20061;-69
2022/06/22 02:20:38;;;;;;;4.75;3.10;;;;;;;;;;5028534;28;20050;-69
2022/06/22 02:23:09;;;;;;;4.10;3.40;;;;;;;;;;5013406;28;20681;-69
2022/06/22 02:25:40;;;;;;;4.85;3.40;;;;;;;;;;5013363;28;20049;-69
2022/06/22 02:28:06;;;;;;;5.28;3.78;;;;;;;;;;5012067;28;20053;-69
2022/06/22 02:30:33;;;;;;;4.88;3.35;;;;;;;;;;5013474;28;20057;-69
2022/06/22 02:33:00;;;;;;;6.70;3.28;;;;;;;;;;5028027;28;20420;-69
2022/06/22 02:35:27;;;;;;;5.10;3.53;;;;;;;;;;5013374;28;20310;-69
2022/06/22 02:37:55;;;;;;;4.63;3.42;;;;;;;;;;5013057;28;20049;-69
2022/06/22 02:40:27;;;;;;;7.43;3.67;;;;;;;;;;5012848;28;20049;-69
2022/06/22 02:45:52;;;;;;;3.70;3.25;;;;;;;;;;5003505;28;20050;-69
2022/06/22 02:48:26;;;;;;;4.22;3.80;;;;;;;;;;5013087;28;20115;-69
2022/06/22 02:51:23;;;;;;;4.00;3.60;;;;;;;;;;5031866;28;20049;-69
2022/06/22 02:53:49;;;;;;;5.35;3.35;;;;;;;;;;5030674;28;20053;-69
2022/06/22 02:56:18;;;;;;;6.85;3.80;;;;;;;;;;5029326;28;20496;-69
2022/06/22 02:58:45;;;;;;;5.25;3.83;;;;;;;;;;5032330;28;20054;-69
2022/06/22 03:01:18;;;;;;;3.83;3.53;;;;;;;;;;5021258;28;20065;-69
2022/06/22 03:03:52;;;;;;;7.45;3.83;;;;;;;;;;5011398;28;20088;-69
2022/06/22 03:06:25;;;;;;;5.07;3.95;;;;;;;;;;5011353;28;20060;-69
2022/06/22 03:08:52;;;;;;;4.10;3.70;;;;;;;;;;5011618;28;20065;-69
2022/06/22 03:11:18;;;;;;;7.28;3.95;;;;;;;;;;5012374;28;20456;-69
2022/06/22 03:13:48;;;;;;;4.82;4.40;;;;;;;;;;5011252;28;20045;-69
2022/06/22 03:16:34;;;;;;;4.47;3.88;;;;;;;;;;5011221;28;20496;-69
2022/06/22 03:19:02;;;;;;;6.03;3.70;;;;;;;;;;5012351;28;20490;-69
2022/06/22 03:21:29;;;;;;;5.97;4.38;;;;;;;;;;5027713;28;20072;-68
2022/06/22 03:24:06;;;;;;;7.60;4.45;;;;;;;;;;5030885;28;20407;-69
2022/06/22 03:26:38;;;;;;;9.70;4.18;;;;;;;;;;5031998;28;20514;-69
2022/06/22 03:29:14;;;;;;;6.05;3.88;;;;;;;;;;5030609;28;20056;-69
2022/06/22 03:32:00;;;;;;;6.15;4.05;;;;;;;;;;5012365;28;20064;-69
2022/06/22 03:34:34;;;;;;;4.70;4.05;;;;;;;;;;4996363;28;20057;-68
2022/06/22 03:37:16;;;;;;;6.00;4.95;;;;;;;;;;4995697;28;20053;-69
2022/06/22 03:39:45;;;;;;;4.93;4.43;;;;;;;;;;4998453;28;20054;-69
2022/06/22 03:42:15;;;;;;;5.10;4.13;;;;;;;;;;5031446;28;20099;-68
2022/06/22 03:45:06;;;;;;;5.35;4.72;;;;;;;;;;5014401;28;20065;-69
2022/06/22 03:48:02;;;;;;;4.85;4.45;;;;;;;;;;5020673;28;20057;-69
2022/06/22 03:50:38;;;;;;;6.43;4.10;;;;;;;;;;5029902;28;20079;-69
2022/06/22 03:53:23;;;;;;;7.50;4.72;;;;;;;;;;5031591;28;20562;-69
2022/06/22 03:55:52;;;;;;;7.95;4.22;;;;;;;;;;5031594;28;20050;-69
2022/06/22 03:58:20;;;;;;;4.40;4.00;;;;;;;;;;5033373;28;20049;-69
2022/06/22 04:00:47;;;;;;;5.97;4.78;;;;;;;;;;5034244;28;20459;-69
2022/06/22 04:03:15;;;;;;;5.07;4.68;;;;;;;;;;5034537;28;20053;-69
2022/06/22 04:05:53;;;;;;;6.85;5.45;;;;;;;;;;5018412;28;20053;-69
2022/06/22 04:08:31;;;;;;;5.55;4.95;;;;;;;;;;5034421;28;20049;-69
2022/06/22 04:11:04;;;;;;;9.00;4.80;;;;;;;;;;5033269;28;20088;-69
2022/06/22 04:13:34;;;;;;;7.07;4.93;;;;;;;;;;5020121;28;20125;-69
2022/06/22 04:16:08;;;;;;;5.72;5.05;;;;;;;;;;5014786;28;20491;-68
2022/06/22 04:18:53;;;;;;;5.28;4.38;;;;;;;;;;5014618;28;20125;-70
2022/06/22 04:21:33;;;;;;;6.55;4.40;;;;;;;;;;4999290;28;20493;-69
2022/06/22 04:24:14;;;;;;;5.10;4.60;;;;;;;;;;4999275;28;20100;-68
2022/06/22 04:26:48;;;;;;;5.97;4.35;;;;;;;;;;4998167;28;20056;-68
2022/06/22 04:29:18;;;;;;;4.68;4.28;;;;;;;;;;4998645;28;20050;-70
2022/06/22 04:32:11;;;;;;;4.93;3.85;;;;;;;;;;5011830;28;20049;-69
2022/06/22 04:34:41;;;;;;;4.55;4.10;;;;;;;;;;5029838;28;20085;-69
2022/06/22 04:37:14;;;;;;;5.15;3.70;;;;;;;;;;5014260;28;20429;-69
2022/06/22 04:39:42;;;;;;;4.80;4.22;;;;;;;;;;5014249;28;20056;-67
2022/06/22 04:42:08;;;;;;;5.80;4.00;;;;;;;;;;5027925;28;20088;-70
2022/06/22 04:44:48;;;;;;;4.95;4.45;;;;;;;;;;5049995;28;20110;-69
2022/06/22 04:47:19;;;;;;;6.78;4.05;;;;;;;;;;5038547;28;20057;-67
2022/06/22 04:49:51;;;;;;;4.82;4.38;;;;;;;;;;5053656;28;20419;-69
2022/06/22 04:52:27;;;;;;;5.35;4.82;;;;;;;;;;5047476;28;20042;-69
2022/06/22 04:54:55;;;;;;;5.05;4.55;;;;;;;;;;5031348;28;20420;-69
2022/06/22 04:57:34;;;;;;;8.02;3.80;;;;;;;;;;5021900;28;20140;-69
2022/06/22 05:00:06;;;;;;;6.25;4.35;;;;;;;;;;5013480;28;20046;-69
2022/06/22 05:02:35;;;;;;;6.90;5.15;;;;;;;;;;5014537;28;20116;-69
2022/06/22 05:05:05;;;;;;;4.32;3.63;;;;;;;;;;5029637;28;20539;-66
2022/06/22 05:07:59;;;;;;;4.68;3.95;;;;;;;;;;5029931;28;20054;-66
2022/06/22 05:10:42;;;;;;;5.53;4.00;;;;;;;;;;5028957;28;20049;-66
2022/06/22 05:13:23;;;;;;;6.13;4.35;;;;;;;;;;5014433;28;20093;-69
2022/06/22 05:15:53;;;;;;;5.05;4.55;;;;;;;;;;5028996;28;20112;-70
2022/06/22 05:18:23;;;;;;;4.47;4.05;;;;;;;;;;5029750;28;20132;-70
2022/06/22 05:21:19;;;;;;;7.25;4.65;;;;;;;;;;5024254;28;20046;-66
2022/06/22 05:23:52;;;;;;;5.00;4.15;;;;;;;;;;5014102;28;20046;-66
2022/06/22 05:26:20;;;;;;;8.48;4.75;;;;;;;;;;5013420;28;20056;-66
2022/06/22 05:28:49;;;;;;;7.80;4.75;;;;;;;;;;4997154;28;20456;-66
2022/06/22 05:31:23;;;;;;;6.35;4.88;;;;;;;;;;5014103;28;20057;-66
2022/06/22 05:33:52;;;;;;;9.27;4.80;;;;;;;;;;5013637;28;20417;-68
2022/06/22 05:36:22;;;;;;;4.95;4.38;;;;;;;;;;5014549;28;20046;-69
2022/06/22 05:38:50;;;;;;;6.63;4.15;;;;;;;;;;5013097;28;20050;-70
2022/06/22 05:41:19;;;;;;;6.43;4.70;;;;;;;;;;4996511;28;20057;-69
2022/06/22 05:43:46;;;;;;;6.95;5.18;;;;;;;;;;5030551;28;20046;-70
2022/06/22 05:46:12;;;;;;;7.10;4.80;;;;;;;;;;5016217;28;20053;-69
2022/06/22 05:48:44;;;;;;;8.05;4.85;;;;;;;;;;5032540;28;20076;-70
2022/06/22 05:51:29;;;;;;;5.93;4.35;;;;;;;;;;5015179;28;20057;-70
2022/06/22 05:54:03;;;;;;;5.82;4.47;;;;;;;;;;5032619;28;20051;-68
2022/06/22 05:56:51;;;;;;;8.75;4.45;;;;;;;;;;5016591;28;20063;-68
2022/06/22 05:59:38;;;;;;;5.88;4.28;;;;;;;;;;5032183;28;20049;-68
2022/06/22 06:02:20;;;;;;;6.93;5.22;;;;;;;;;;5016192;28;20058;-65
2022/06/22 06:05:25;;;;;;;6.75;4.43;;;;;;;;;;5010872;28;20050;-66
2022/06/22 06:07:54;;;;;;;6.60;4.40;;;;;;;;;;5010678;28;20084;-66
2022/06/22 06:10:30;;;;;;;9.30;4.68;;;;;;;;;;4994187;28;20100;-66
2022/06/22 06:13:03;;;;;;;7.72;4.60;;;;;;;;;;4994197;28;20096;-67
2022/06/22 06:15:39;;;;;;;8.90;5.28;;;;;;;;;;5011636;28;20111;-67
2022/06/22 06:18:07;;;;;;;8.68;5.13;;;;;;;;;;5009655;28;20050;-67
2022/06/22 06:20:39;;;;;;;9.70;5.68;;;;;;;;;;5010163;28;20578;-67
2022/06/22 06:23:22;;;;;;;7.07;4.57;;;;;;;;;;4993700;28;20045;-67
2022/06/22 06:28:59;;;;;;;7.03;4.90;;;;;;;;;;5011017;28;20061;-67
2022/06/22 06:31:37;;;;;;;8.63;5.10;;;;;;;;;;5001469;28;20064;-67
2022/06/22 06:34:10;;;;;;;8.98;5.10;;;;;;;;;;5009757;28;20060;-67
2022/06/22 06:37:00;;;;;;;7.32;5.00;;;;;;;;;;4994038;28;20054;-67
2022/06/22 06:39:29;;;;;;;9.32;5.55;;;;;;;;;;5024872;28;20061;-67
2022/06/22 06:42:03;;;;;;;8.00;5.00;;;;;;;;;;5028992;28;20402;-67
2022/06/22 06:44:32;;;;;;;8.18;5.55;;;;;;;;;;5013532;28;20060;-67
2022/06/22 06:47:03;;;;;;;12.27;7.13;;;;;;;;;;5029470;28;20061;-67
2022/06/22 06:49:57;;;;;;;9.98;5.60;;;;;;;;;;5030591;28;20145;-67
2022/06/22 06:52:51;;;;;;;7.25;4.75;;;;;;;;;;5013708;28;20114;-67
2022/06/22 06:55:45;;;;;;;6.25;4.97;;;;;;;;;;5015850;28;20493;-67
2022/06/22 06:58:19;;;;;;;8.40;5.47;;;;;;;;;;5015263;28;20053;-67
2022/06/22 07:00:47;;;;;;;7.15;4.78;;;;;;;;;;5029260;28;20103;-67
2022/06/22 07:03:25;;;;;;;12.10;5.43;;;;;;;;;;5030071;28;20060;-67
2022/06/22 07:05:52;;;;;;;11.90;5.03;;;;;;;;;;5013179;28;20061;-67
2022/06/22 07:08:29;;;;;;;7.50;5.20;;;;;;;;;;5030718;28;20050;-66
2022/06/22 07:11:31;;;;;;;10.75;5.65;;;;;;;;;;5028617;28;20134;-67
2022/06/22 07:14:10;;;;;;;7.85;4.50;;;;;;;;;;5021445;28;20053;-67
2022/06/22 07:16:36;;;;;;;8.73;4.30;;;;;;;;;;5008455;28;20055;-67
2022/06/22 07:19:15;;;;;;;7.18;5.22;;;;;;;;;;5007564;28;20053;-67
2022/06/22 07:21:49;;;;;;;7.30;5.10;;;;;;;;;;5024200;28;20046;-67
2022/06/22 07:24:27;;;;;;;6.45;5.22;;;;;;;;;;4993264;28;20046;-67
2022/06/22 07:27:04;;;;;;;7.13;5.60;;;;;;;;;;5010307;28;20050;-67
2022/06/22 07:29:39;;;;;;;9.23;6.07;;;;;;;;;;5009253;28;20054;-67
2022/06/22 07:32:26;;;;;;;11.35;6.43;;;;;;;;;;4988539;28;20084;-65
2022/06/22 07:35:24;;;;;;;8.85;6.72;;;;;;;;;;5021442;28;20050;-66
2022/06/22 07:38:16;;;;;;;7.78;7.07;;;;;;;;;;5013552;28;20050;-65
2022/06/22 07:41:18;;;;;;;9.18;7.40;;;;;;;;;;5013994;28;20089;-65
2022/06/22 07:43:31;;;;;;;9.18;8.23;;;;;;;;;;5015532;28;20046;-67
2022/06/22 07:45:58;;;;;;;9.32;8.32;;;;;;;;;;5017270;28;20062;-67
2022/06/22 07:48:25;;;;;;;9.93;8.80;;;;;;;;;;5014811;28;20089;-69
2022/06/22 07:50:56;;;;;;;10.68;9.10;;;;;;;;;;5022178;28;20104;-68
2022/06/22 07:53:49;;;;;;;10.77;8.70;;;;;;;;;;5015486;28;20046;-69
2022/06/22 07:56:47;;;;;;;11.45;9.68;;;;;;;;;;5018281;28;20076;-69
2022/06/22 07:59:35;;;;;;;12.90;9.95;;;;;;;;;;4996210;28;20471;-70
2022/06/22 08:02:10;;;;;;;12.75;10.15;;;;;;;;;;5000231;28;20119;-69
2022/06/22 08:04:40;;;;;;;15.13;10.05;;;;;;;;;;5018120;28;20084;-69
2022/06/22 08:07:10;;;;;;;17.58;9.90;;;;;;;;;;4998721;28;20052;-72
2022/06/22 08:09:44;;;;;;;14.77;8.77;;;;;;;;;;5032798;28;20077;-69
2022/06/22 08:12:21;;;;;;;10.77;9.25;;;;;;;;;;5016032;28;20187;-66
2022/06/22 08:14:52;;;;;;;11.60;8.70;;;;;;;;;;5002945;28;20081;-68
2022/06/22 08:17:30;;;;;;;10.75;8.77;;;;;;;;;;5017471;28;20108;-67
2022/06/22 08:19:57;;;;;;;11.38;9.23;;;;;;;;;;5021498;28;20441;-68
2022/06/22 08:22:24;;;;;;;9.63;8.63;;;;;;;;;;5016203;28;20061;-68
2022/06/22 08:24:52;;;;;;;9.55;8.55;;;;;;;;;;5020144;28;20099;-68
2022/06/22 08:27:20;;;;;;;10.90;8.85;;;;;;;;;;5020928;28;20436;-68
2022/06/22 08:29:48;;;;;;;13.57;8.48;;;;;;;;;;5016823;28;20049;-68
2022/06/22 08:32:19;;;;;;;10.85;9.25;;;;;;;;;;5017640;28;20064;-68
2022/06/22 08:34:53;;;;;;;12.43;8.82;;;;;;;;;;5031569;28;20333;-68
2022/06/22 08:37:28;;;;;;;11.05;8.55;;;;;;;;;;5018686;28;20045;-66
2022/06/22 08:40:03;;;;;;;9.93;9.00;;;;;;;;;;5019061;28;20049;-68
2022/06/22 08:42:58;;;;;;;10.52;8.30;;;;;;;;;;5017017;28;20050;-67
2022/06/22 08:45:52;;;;;;;11.38;8.60;;;;;;;;;;5022671;28;20057;-67
2022/06/22 08:48:35;;;;;;;14.45;9.52;;;;;;;;;;5023431;28;20053;-68
2022/06/22 08:51:06;;;;;;;11.68;8.65;;;;;;;;;;5063579;23;20573;-65
2022/06/22 08:54:04;;;;;;;10.40;9.20;;;;;;;;;;5059668;28;20426;-65
2022/06/22 08:56:41;;;;;;;10.48;8.10;;;;;;;;;;5061304;28;20067;-65
2022/06/22 08:59:33;;;;;;;10.20;8.80;;;;;;;;;;5058905;28;20045;-65
2022/06/22 09:02:29;;;;;;;8.82;7.93;;;;;;;;;;5060647;28;20049;-65
2022/06/22 09:05:00;;;;;;;7.85;6.63;;;;;;;;;;5056521;28;20051;-65
2022/06/22 09:07:48;;;;;;;8.57;6.80;;;;;;;;;;5058203;28;20052;-64
2022/06/22 09:10:53;;;;;;;8.52;6.70;;;;;;;;;;5060432;28;20442;-64
2022/06/22 09:13:33;;;;;;;9.40;6.55;;;;;;;;;;5061099;28;20052;-76
2022/06/22 09:16:12;;;;;;;9.52;6.28;;;;;;;;;;5060911;28;20056;-76
2022/06/22 09:18:47;;;;;;;9.48;6.63;;;;;;;;;;5061851;28;20467;-72
2022/06/22 09:21:46;;;;;;;7.20;6.50;;;;;;;;;;5061033;28;20045;-72
2022/06/22 09:24:21;;;;;;;9.25;6.50;;;;;;;;;;5057131;28;20048;-72
2022/06/22 09:27:10;;;;;;;10.75;6.38;;;;;;;;;;5060422;28;20495;-71
2022/06/22 09:29:55;;;;;;;8.73;7.57;;;;;;;;;;5059778;28;20056;-69
2022/06/22 09:32:31;;;;;;;13.77;6.95;;;;;;;;;;5060507;28;20495;-70
2022/06/22 09:35:34;;;;;;;10.05;7.38;;;;;;;;;;5058682;28;20136;-73
2022/06/22 09:38:18;;;;;;;10.77;7.40;;;;;;;;;;5060409;28;20049;-76
2022/06/22 09:41:29;;;;;;;10.52;7.72;;;;;;;;;;5055616;28;20056;-72
2022/06/22 09:44:21;;;;;;;11.95;7.43;;;;;;;;;;5039855;28;20084;-72
2022/06/22 09:47:06;;;;;;;10.32;6.95;;;;;;;;;;5058610;28;20049;-68
2022/06/22 09:50:17;;;;;;;12.07;7.70;;;;;;;;;;5056112;28;20074;-70
2022/06/22 09:53:09;;;;;;;10.55;7.95;;;;;;;;;;5047422;28;20495;-69
2022/06/22 09:58:54;;;;;;;11.93;7.45;;;;;;;;;;5059822;28;20052;-73
2022/06/22 10:01:33;;;;;;;10.90;7.25;;;;;;;;;;5066047;28;20060;-73
2022/06/22 10:04:20;;;;;;;9.82;7.43;;;;;;;;;;5059033;28;20526;-74
2022/06/22 10:07:34;;;;;;;8.20;7.05;;;;;;;;;;5059556;28;20057;-71
2022/06/22 10:10:33;;;;;;;12.98;7.28;;;;;;;;;;5012323;28;20052;-70
2022/06/22 10:13:09;;;;;;;8.52;6.38;;;;;;;;;;5059541;28;20048;-66
2022/06/22 10:16:11;;;;;;;7.97;6.20;;;;;;;;;;5056769;28;20462;-66
2022/06/22 10:18:58;;;;;;;12.02;7.97;;;;;;;;;;5059135;28;20045;-64
2022/06/22 10:21:31;;;;;;;9.13;7.47;;;;;;;;;;5056253;28;20052;-74
2022/06/22 10:24:42;;;;;;;8.70;7.43;;;;;;;;;;5059593;28;20084;-64
2022/06/22 10:27:28;;;;;;;8.77;7.45;;;;;;;;;;5037381;28;20057;-76
2022/06/22 10:30:09;;;;;;;12.23;9.00;;;;;;;;;;5060911;28;20053;-74
2022/06/22 10:33:00;;;;;;;7.32;6.63;;;;;;;;;;5060851;28;20044;-75
2022/06/22 10:36:09;;;;;;;10.85;7.05;;;;;;;;;;5058742;28;20063;-70
2022/06/22 10:38:56;;;;;;;10.93;7.75;;;;;;;;;;5038456;28;20049;-71
2022/06/22 10:45:08;;;;;;;7.63;6.43;;;;;;;;;;5057755;28;20053;-71
2022/06/22 10:47:38;;;;;;;9.55;6.43;;;;;;;;;;5057724;28;20051;-71
2022/06/22 10:50:32;;;;;;;8.85;6.25;;;;;;;;;;5057161;28;20055;-71
2022/06/22 10:53:10;;;;;;;8.10;5.95;;;;;;;;;;5057066;28;20140;-68
2022/06/22 10:55:56;;;;;;;7.13;5.90;;;;;;;;;;5060223;28;20124;-72
2022/06/22 10:58:44;;;;;;;10.85;5.97;;;;;;;;;;5057394;28;20044;-71
2022/06/22 11:01:27;;;;;;;8.65;5.90;;;;;;;;;;5055750;28;20502;-68
2022/06/22 11:04:16;;;;;;;11.38;6.68;;;;;;;;;;5060139;28;20049;-72
2022/06/22 11:06:55;;;;;;;9.95;6.60;;;;;;;;;;5052463;28;20049;-66
2022/06/22 11:09:49;;;;;;;6.95;6.22;;;;;;;;;;5057589;28;20060;-66
2022/06/22 11:12:53;;;;;;;9.27;7.18;;;;;;;;;;5056349;28;20517;-67
2022/06/22 11:15:54;;;;;;;13.23;8.95;;;;;;;;;;5055933;28;20122;-66
2022/06/22 11:18:41;;;;;;;10.63;9.02;;;;;;;;;;5028277;28;20098;-64
2022/06/22 11:21:31;;;;;;;10.10;9.15;;;;;;;;;;5051937;28;20056;-65
2022/06/22 11:24:26;;;;;;;11.77;10.35;;;;;;;;;;5060022;28;20526;-66
2022/06/22 11:30:48;;;;;;;10.13;7.97;;;;;;;;;;5054460;28;20049;-66
2022/06/22 11:34:08;;;;;;;8.68;6.75;;;;;;;;;;5060409;28;20068;-64
2022/06/22 11:36:41;;;;;;;10.70;7.40;;;;;;;;;;4969113;28;20042;-65
2022/06/22 11:39:53;;;;;;;8.60;7.38;;;;;;;;;;5058610;28;20103;-65
2022/06/22 11:42:28;;;;;;;8.57;7.75;;;;;;;;;;5058996;28;20063;-65
2022/06/22 11:48:00;;;;;;;9.82;7.20;;;;;;;;;;5058486;28;20083;-65
2022/06/22 11:50:30;;;;;;;9.02;6.50;;;;;;;;;;5055645;28;20121;-66
2022/06/22 11:53:26;;;;;;;9.40;6.63;;;;;;;;;;5061426;28;20055;-66
2022/06/22 11:55:57;;;;;;;10.38;6.15;;;;;;;;;;5058015;28;20389;-65
2022/06/22 11:58:39;;;;;;;11.23;5.85;;;;;;;;;;5041145;28;20245;-64
2022/06/22 12:01:09;;;;;;;9.13;5.63;;;;;;;;;;5054221;28;20059;-65
2022/06/22 12:04:13;;;;;;;7.05;5.97;;;;;;;;;;5058442;28;20045;-65
2022/06/22 12:07:22;;;;;;;6.35;5.30;;;;;;;;;;5059505;28;20041;-65
2022/06/22 12:10:19;;;;;;;10.20;6.55;;;;;;;;;;5007640;28;20091;-66
2022/06/22 12:13:00;;;;;;;11.45;7.38;;;;;;;;;;5056728;28;20056;-66
2022/06/22 12:15:36;;;;;;;10.07;7.47;;;;;;;;;;5034402;28;20420;-65
2022/06/22 12:18:14;;;;;;;7.97;7.18;;;;;;;;;;5058896;28;20484;-65
2022/06/22 12:20:44;;;;;;;11.75;7.55;;;;;;;;;;5063677;28;20515;-65
2022/06/22 12:23:18;;;;;;;12.70;7.47;;;;;;;;;;5060900;28;20060;-66
2022/06/22 12:25:50;;;;;;;9.15;6.85;;;;;;;;;;5060462;28;20040;-66
2022/06/22 12:28:25;;;;;;;15.73;6.97;;;;;;;;;;5063196;28;20048;-66
2022/06/22 12:31:10;;;;;;;10.80;6.93;;;;;;;;;;5056724;28;20424;-66
2022/06/22 12:33:52;;;;;;;12.20;7.43;;;;;;;;;;5056583;28;20072;-67
2022/06/22 12:36:29;;;;;;;11.57;7.28;;;;;;;;;;5060588;28;20056;-68
2022/06/22 12:39:22;;;;;;;9.55;8.00;;;;;;;;;;5044291;28;20055;-67
2022/06/22 12:41:48;;;;;;;;;;;;;;;;;;5061003;28;20517;-67
2022/06/22 12:44:30;;;;;;;10.00;7.03;;;;;;;;;;5060247;28;20313;-67
2022/06/22 12:46:56;;;;;;;9.20;7.30;;;;;;;;;;5062531;28;20491;-67
2022/06/22 12:49:31;;;;;;;11.50;8.00;;;;;;;;;;5060017;28;20052;-66
2022/06/22 12:52:15;;;;;;;9.98;7.15;;;;;;;;;;5061226;28;20057;-66
2022/06/22 12:54:45;;;;;;;10.20;8.15;;;;;;;;;;5044714;28;20049;-66
2022/06/22 12:57:14;;;;;;;9.30;7.20;;;;;;;;;;5042768;28;20087;-69
2022/06/22 12:59:49;;;;;;;12.13;9.23;;;;;;;;;;5042689;28;20045;-65
2022/06/22 13:02:19;;;;;;;11.70;8.63;;;;;;;;;;5045112;28;20042;-65
2022/06/22 13:04:47;;;;;;;12.88;9.40;;;;;;;;;;5038765;28;20045;-72
2022/06/22 13:07:16;;;;;;;10.98;9.70;;;;;;;;;;5047304;28;20068;-74
2022/06/22 13:09:43;;;;;;;9.02;8.15;;;;;;;;;;5059976;28;20049;-72
2022/06/22 13:12:20;;;;;;;12.52;8.13;;;;;;;;;;5044574;28;20056;-72
2022/06/22 13:14:52;;;;;;;8.95;7.75;;;;;;;;;;5029902;28;20045;-70
2022/06/22 13:17:28;;;;;;;11.25;8.90;;;;;;;;;;5024538;28;20397;-69
2022/06/22 13:20:06;;;;;;;9.57;7.95;;;;;;;;;;5030571;28;20415;-70
2022/06/22 13:22:51;;;;;;;15.82;10.18;;;;;;;;;;5054936;28;20044;-69
2022/06/22 13:25:21;;;;;;;12.02;10.82;;;;;;;;;;5060875;28;20045;-69
2022/06/22 13:27:56;;;;;;;16.65;12.88;;;;;;;;;;5062809;28;20045;-69
2022/06/22 13:30:37;;;;;;;15.30;10.60;;;;;;;;;;5042833;28;20110;-69
2022/06/22 13:33:13;;;;;;;11.90;10.32;;;;;;;;;;5059520;28;20098;-72
2022/06/22 13:35:51;;;;;;;10.18;9.18;;;;;;;;;;5023235;28;20049;-72
2022/06/22 13:38:34;;;;;;;14.10;9.93;;;;;;;;;;5013319;28;20091;-74
2022/06/22 13:41:38;;;;;;;10.60;9.50;;;;;;;;;;5045759;28;20576;-72
2022/06/22 13:44:37;;;;;;;13.75;10.52;;;;;;;;;;5060476;28;20056;-71
2022/06/22 13:47:27;;;;;;;10.50;9.43;;;;;;;;;;5035879;28;20510;-70
2022/06/22 13:50:27;;;;;;;12.02;10.73;;;;;;;;;;5060062;28;20052;-71
2022/06/22 13:52:55;;;;;;;16.30;10.65;;;;;;;;;;5061219;28;20124;-71
2022/06/22 13:55:48;;;;;;;12.27;9.48;;;;;;;;;;5061609;28;20045;-72
2022/06/22 13:58:24;;;;;;;12.30;10.00;;;;;;;;;;5058682;28;20403;-76
2022/06/22 14:01:11;;;;;;;11.90;10.38;;;;;;;;;;5055412;28;20057;-73
2022/06/22 14:03:53;;;;;;;13.98;11.32;;;;;;;;;;5044275;28;20049;-72
2022/06/22 14:06:25;;;;;;;12.40;10.50;;;;;;;;;;5061217;28;20122;-72
2022/06/22 14:09:19;;;;;;;14.77;11.40;;;;;;;;;;5042322;28;20068;-67
2022/06/22 14:12:03;;;;;;;13.18;9.90;;;;;;;;;;5059239;28;20044;-66
2022/06/22 14:14:39;;;;;;;12.25;10.55;;;;;;;;;;5055037;28;20385;-72
2022/06/22 14:17:12;;;;;;;11.45;9.80;;;;;;;;;;5061732;28;20510;-71
2022/06/22 14:19:55;;;;;;;15.45;10.60;;;;;;;;;;5024477;28;20385;-72
2022/06/22 14:22:29;;;;;;;13.45;10.05;;;;;;;;;;5029965;22;20042;-71
2022/06/22 14:24:58;;;;;;;15.43;10.85;;;;;;;;;;5001308;28;20092;-70
2022/06/22 14:27:52;;;;;;;10.63;9.25;;;;;;;;;;5018683;28;20049;-70
2022/06/22 14:30:41;;;;;;;11.00;9.23;;;;;;;;;;5022423;28;20057;-73
2022/06/22 14:33:39;;;;;;;11.45;9.13;;;;;;;;;;5022446;28;20401;-74
2022/06/22 14:36:24;;;;;;;8.82;8.02;;;;;;;;;;5010107;28;20516;-73
2022/06/22 14:39:33;;;;;;;10.52;8.63;;;;;;;;;;5018654;28;20057;-76
2022/06/22 14:42:21;;;;;;;9.85;8.05;;;;;;;;;;5016540;28;20390;-68
2022/06/22 14:44:58;;;;;;;12.27;8.32;;;;;;;;;;5017350;28;20054;-70
2022/06/22 14:47:35;;;;;;;10.40;7.80;;;;;;;;;;5018712;28;20050;-73
2022/06/22 14:50:18;;;;;;;10.52;7.32;;;;;;;;;;5013253;28;20047;-65
2022/06/22 14:53:03;;;;;;;10.95;7.85;;;;;;;;;;5048738;22;20140;-66
2022/06/22 14:55:54;;;;;;;10.00;8.23;;;;;;;;;;5031380;28;20045;-65
2022/06/22 14:58:43;;;;;;;10.15;7.50;;;;;;;;;;5029295;28;20107;-66
2022/06/22 15:01:29;;;;;;;11.00;7.07;;;;;;;;;;5031488;28;20045;-68
2022/06/22 15:04:12;;;;;;;14.02;8.75;;;;;;;;;;4990708;28;20055;-71
2022/06/22 15:07:07;;;;;;;10.00;6.40;;;;;;;;;;5011027;28;20499;-70
2022/06/22 15:09:43;;;;;;;9.88;5.38;;;;;;;;;;5013527;28;20099;-71
2022/06/22 15:15:29;;;;;;;14.35;5.75;;;;;;;;;;4997385;28;20095;-70
2022/06/22 15:18:05;;;;;;;8.35;4.40;;;;;;;;;;5012155;28;20060;-67
2022/06/22 15:20:45;;;;;;;9.20;4.90;;;;;;;;;;5014208;28;20056;-67
2022/06/22 15:23:33;;;;;;;9.73;5.35;;;;;;;;;;4997451;28;20439;-73
2022/06/22 15:26:36;;;;;;;11.52;6.00;;;;;;;;;;5013579;28;20504;-74
2022/06/22 15:29:25;;;;;;;11.57;5.22;;;;;;;;;;5012191;28;20091;-72
2022/06/22 15:31:55;;;;;;;10.98;5.30;;;;;;;;;;4998633;28;20051;-74
2022/06/22 15:34:36;;;;;;;16.98;6.25;;;;;;;;;;5012334;28;20053;-74
2022/06/22 15:37:09;;;;;;;10.40;5.88;;;;;;;;;;5030703;28;20067;-75
2022/06/22 15:39:38;;;;;;;13.63;5.72;;;;;;;;;;5013178;28;20135;-69
2022/06/22 15:42:12;;;;;;;10.38;5.28;;;;;;;;;;5010410;28;20050;-69
2022/06/22 15:44:48;;;;;;;9.95;4.85;;;;;;;;;;5012797;28;20057;-70
2022/06/22 15:47:24;;;;;;;12.07;4.72;;;;;;;;;;5001258;28;20050;-69
2022/06/22 15:49:53;;;;;;;11.68;5.15;;;;;;;;;;5011664;28;20099;-70
2022/06/22 15:52:24;;;;;;;11.88;5.50;;;;;;;;;;5030975;28;20052;-73
2022/06/22 15:55:13;;;;;;;9.38;4.85;;;;;;;;;;4984195;28;20046;-71
2022/06/22 15:57:53;;;;;;;14.68;5.97;;;;;;;;;;5018931;28;20504;-71
2022/06/22 16:00:31;;;;;;;12.90;5.50;;;;;;;;;;5020125;28;20096;-72
2022/06/22 16:03:32;;;;;;;14.15;5.72;;;;;;;;;;5016899;28;20057;-72
2022/06/22 16:06:24;;;;;;;10.60;4.90;;;;;;;;;;5024068;28;20081;-65
2022/06/22 16:09:10;;;;;;;11.80;6.28;;;;;;;;;;5003939;28;20119;-66
2022/06/22 16:14:35;;;;;;;14.52;6.80;;;;;;;;;;5007350;28;20045;-66
2022/06/22 16:17:21;;;;;;;9.82;6.63;;;;;;;;;;5019415;28;20053;-66
2022/06/22 16:19:50;;;;;;;13.15;6.30;;;;;;;;;;5033301;28;20049;-66